createdAt,value
2018-07-07T00:00:03.980Z,934.27
2018-07-07T00:01:03.866Z,934.26
2018-07-07T00:02:03.852Z,934.29
2018-07-07T00:03:03.781Z,934.24
2018-07-07T00:04:03.735Z,934.22
2018-07-07T00:05:03.688Z,934.30
2018-07-07T00:06:03.642Z,934.32
2018-07-07T00:07:03.590Z,934.35
2018-07-07T00:08:03.568Z,934.31
2018-07-07T00:09:03.511Z,934.32
2018-07-07T00:10:03.483Z,934.33
2018-07-07T00:11:03.427Z,934.38
2018-07-07T00:12:03.393Z,934.40
2018-07-07T00:13:03.336Z,934.41
2018-07-07T00:14:03.302Z,934.47
2018-07-07T00:15:03.248Z,934.42
2018-07-07T00:16:03.220Z,934.45
2018-07-07T00:17:03.150Z,934.47
2018-07-07T00:18:03.106Z,934.44
2018-07-07T00:19:03.059Z,934.46
2018-07-07T00:20:03.008Z,934.44
2018-07-07T00:21:02.964Z,934.42
2018-07-07T00:22:02.923Z,934.40
2018-07-07T00:23:02.874Z,934.45
2018-07-07T00:24:02.850Z,934.47
2018-07-07T00:25:02.787Z,934.44
2018-07-07T00:26:02.755Z,934.40
2018-07-07T00:27:02.712Z,934.39
2018-07-07T00:28:02.641Z,934.41
2018-07-07T00:29:02.611Z,934.40
2018-07-07T00:30:02.555Z,934.39
2018-07-07T00:31:02.516Z,934.36
2018-07-07T00:32:02.491Z,934.37
2018-07-07T00:33:02.420Z,934.34
2018-07-07T00:34:02.380Z,934.40
2018-07-07T00:35:02.342Z,934.37
2018-07-07T00:36:02.297Z,934.42
2018-07-07T00:37:02.225Z,934.40
2018-07-07T00:38:02.194Z,934.42
2018-07-07T00:39:02.148Z,934.42
2018-07-07T00:40:02.119Z,934.48
2018-07-07T00:41:02.055Z,934.47
2018-07-07T00:42:02.008Z,934.48
2018-07-07T00:43:01.968Z,934.48
2018-07-07T00:44:01.918Z,934.51
2018-07-07T00:45:01.872Z,934.57
2018-07-07T00:46:01.825Z,934.53
2018-07-07T00:47:01.774Z,934.52
2018-07-07T00:48:01.726Z,934.53
2018-07-07T00:49:01.682Z,934.48
2018-07-07T00:50:01.629Z,934.47
2018-07-07T00:51:01.591Z,934.51
2018-07-07T00:52:01.557Z,934.48
2018-07-07T00:53:01.507Z,934.48
2018-07-07T00:54:01.450Z,934.47
2018-07-07T00:55:01.405Z,934.47
2018-07-07T00:56:01.356Z,934.46
2018-07-07T00:57:01.313Z,934.49
2018-07-07T00:58:01.274Z,934.49
2018-07-07T00:59:01.230Z,934.48
2018-07-07T01:00:01.188Z,934.51
2018-07-07T01:01:01.250Z,934.51
2018-07-07T01:02:01.095Z,934.51
2018-07-07T01:03:01.069Z,934.45
2018-07-07T01:04:01.006Z,934.53
2018-07-07T01:05:00.946Z,934.52
2018-07-07T01:06:00.908Z,934.45
2018-07-07T01:07:00.863Z,934.47
2018-07-07T01:08:00.813Z,934.47
2018-07-07T01:09:00.786Z,934.46
2018-07-07T01:10:00.722Z,934.49
2018-07-07T01:11:00.667Z,934.53
2018-07-07T01:12:00.638Z,934.49
2018-07-07T01:13:00.585Z,934.55
2018-07-07T01:14:00.534Z,934.49
2018-07-07T01:15:00.482Z,934.51
2018-07-07T01:16:00.442Z,934.51
2018-07-07T01:17:00.419Z,934.51
2018-07-07T01:18:00.354Z,934.55
2018-07-07T01:19:00.304Z,934.57
2018-07-07T01:20:00.276Z,934.59
2018-07-07T01:21:00.218Z,934.56
2018-07-07T01:22:00.172Z,934.57
2018-07-07T01:23:00.120Z,934.56
2018-07-07T01:24:00.097Z,934.53
2018-07-07T01:25:00.039Z,934.55
2018-07-07T01:26:00.007Z,934.59
2018-07-07T01:26:59.927Z,934.56
2018-07-07T01:27:59.881Z,934.52
2018-07-07T01:28:59.865Z,934.54
2018-07-07T01:29:59.800Z,934.51
2018-07-07T01:30:59.752Z,934.56
2018-07-07T01:31:59.723Z,934.52
2018-07-07T01:32:59.655Z,934.53
2018-07-07T01:33:59.616Z,934.53
2018-07-07T01:34:59.572Z,934.53
2018-07-07T01:35:59.544Z,934.52
2018-07-07T01:36:59.478Z,934.51
2018-07-07T01:37:59.433Z,934.53
2018-07-07T01:38:59.381Z,934.50
2018-07-07T01:39:59.341Z,934.51
2018-07-07T01:40:59.288Z,934.52
2018-07-07T01:41:59.261Z,934.49
2018-07-07T01:42:59.191Z,934.47
2018-07-07T01:43:59.149Z,934.44
2018-07-07T01:44:59.140Z,934.43
2018-07-07T01:45:59.089Z,934.47
2018-07-07T01:46:59.020Z,934.45
2018-07-07T01:47:58.961Z,934.48
2018-07-07T01:48:58.912Z,934.44
2018-07-07T01:49:58.886Z,934.46
2018-07-07T01:50:58.833Z,934.48
2018-07-07T01:51:58.787Z,934.48
2018-07-07T01:52:58.748Z,934.47
2018-07-07T01:53:58.703Z,934.43
2018-07-07T01:54:58.663Z,934.45
2018-07-07T01:55:58.608Z,934.44
2018-07-07T01:56:58.564Z,934.42
2018-07-07T01:57:58.503Z,934.43
2018-07-07T01:58:58.457Z,934.40
2018-07-07T01:59:58.411Z,934.41
2018-07-07T02:00:58.361Z,934.39
2018-07-07T02:01:58.345Z,934.40
2018-07-07T02:02:58.278Z,934.43
2018-07-07T02:03:58.220Z,934.39
2018-07-07T02:04:58.181Z,934.38
2018-07-07T02:05:58.157Z,934.44
2018-07-07T02:06:58.102Z,934.43
2018-07-07T02:07:58.042Z,934.43
2018-07-07T02:08:58.021Z,934.45
2018-07-07T02:09:57.963Z,934.38
2018-07-07T02:10:57.899Z,934.41
2018-07-07T02:11:57.851Z,934.41
2018-07-07T02:12:57.817Z,934.44
2018-07-07T02:13:57.759Z,934.39
2018-07-07T02:14:57.747Z,934.36
2018-07-07T02:15:57.679Z,934.40
2018-07-07T02:16:57.645Z,934.38
2018-07-07T02:17:57.612Z,934.39
2018-07-07T02:18:57.541Z,934.37
2018-07-07T02:19:57.480Z,934.34
2018-07-07T02:20:57.439Z,934.36
2018-07-07T02:21:57.423Z,934.35
2018-07-07T02:22:57.375Z,934.35
2018-07-07T02:23:57.323Z,934.36
2018-07-07T02:24:57.260Z,934.36
2018-07-07T02:25:57.211Z,934.35
2018-07-07T02:26:57.176Z,934.37
2018-07-07T02:27:57.147Z,934.33
2018-07-07T02:28:57.075Z,934.33
2018-07-07T02:29:57.021Z,934.29
2018-07-07T02:30:57.009Z,934.29
2018-07-07T02:31:56.949Z,934.33
2018-07-07T02:32:56.901Z,934.34
2018-07-07T02:33:56.858Z,934.33
2018-07-07T02:34:56.795Z,934.32
2018-07-07T02:35:56.782Z,934.29
2018-07-07T02:36:56.712Z,934.32
2018-07-07T02:37:56.665Z,934.31
2018-07-07T02:38:56.614Z,934.32
2018-07-07T02:39:56.582Z,934.34
2018-07-07T02:40:56.529Z,934.34
2018-07-07T02:41:56.482Z,934.34
2018-07-07T02:42:56.433Z,934.36
2018-07-07T02:43:56.406Z,934.35
2018-07-07T02:44:56.337Z,934.36
2018-07-07T02:45:56.307Z,934.41
2018-07-07T02:46:56.279Z,934.34
2018-07-07T02:47:56.217Z,934.33
2018-07-07T02:48:56.177Z,934.30
2018-07-07T02:49:56.141Z,934.32
2018-07-07T02:50:56.078Z,934.32
2018-07-07T02:51:56.014Z,934.28
2018-07-07T02:52:55.967Z,934.32
2018-07-07T02:53:55.934Z,934.31
2018-07-07T02:54:55.889Z,934.30
2018-07-07T02:55:55.855Z,934.33
2018-07-07T02:56:55.803Z,934.33
2018-07-07T02:57:55.760Z,934.31
2018-07-07T02:58:55.693Z,934.31
2018-07-07T02:59:55.645Z,934.31
2018-07-07T03:00:55.610Z,934.30
2018-07-07T03:01:55.553Z,934.28
2018-07-07T03:02:55.511Z,934.25
2018-07-07T03:03:55.471Z,934.29
2018-07-07T03:04:55.427Z,934.27
2018-07-07T03:05:55.377Z,934.30
2018-07-07T03:06:55.361Z,934.25
2018-07-07T03:07:55.299Z,934.24
2018-07-07T03:08:55.229Z,934.23
2018-07-07T03:09:55.184Z,934.19
2018-07-07T03:10:55.140Z,934.20
2018-07-07T03:11:55.111Z,934.24
2018-07-07T03:12:55.053Z,934.18
2018-07-07T03:13:55.009Z,934.26
2018-07-07T03:14:54.966Z,934.26
2018-07-07T03:15:54.909Z,934.29
2018-07-07T03:16:54.875Z,934.29
2018-07-07T03:17:54.813Z,934.27
2018-07-07T03:18:54.769Z,934.28
2018-07-07T03:19:54.732Z,934.26
2018-07-07T03:20:54.704Z,934.24
2018-07-07T03:21:54.654Z,934.21
2018-07-07T03:22:54.608Z,934.26
2018-07-07T03:23:54.561Z,934.22
2018-07-07T03:24:54.484Z,934.22
2018-07-07T03:25:54.459Z,934.22
2018-07-07T03:26:54.400Z,934.24
2018-07-07T03:27:54.379Z,934.26
2018-07-07T03:28:54.317Z,934.21
2018-07-07T03:29:54.277Z,934.26
2018-07-07T03:30:54.228Z,934.24
2018-07-07T03:31:54.188Z,934.25
2018-07-07T03:32:54.146Z,934.21
2018-07-07T03:33:54.100Z,934.22
2018-07-07T03:34:54.035Z,934.23
2018-07-07T03:35:54.007Z,934.21
2018-07-07T03:36:53.934Z,934.17
2018-07-07T03:37:53.912Z,934.18
2018-07-07T03:38:53.856Z,934.18
2018-07-07T03:39:53.792Z,934.15
2018-07-07T03:40:53.781Z,934.19
2018-07-07T03:41:53.711Z,934.16
2018-07-07T03:42:53.686Z,934.20
2018-07-07T03:43:53.641Z,934.19
2018-07-07T03:44:53.559Z,934.12
2018-07-07T03:45:53.522Z,934.16
2018-07-07T03:46:53.500Z,934.15
2018-07-07T03:47:53.423Z,934.17
2018-07-07T03:48:53.387Z,934.15
2018-07-07T03:49:53.362Z,934.16
2018-07-07T03:50:53.303Z,934.10
2018-07-07T03:51:53.263Z,934.07
2018-07-07T03:52:53.218Z,934.13
2018-07-07T03:53:53.158Z,934.09
2018-07-07T03:54:53.110Z,934.16
2018-07-07T03:55:53.059Z,934.14
2018-07-07T03:56:53.037Z,934.21
2018-07-07T03:57:52.967Z,934.20
2018-07-07T03:58:53.002Z,934.16
2018-07-07T03:59:52.893Z,934.17
2018-07-07T04:00:52.832Z,934.16
2018-07-07T04:01:52.791Z,934.16
2018-07-07T04:02:52.740Z,934.09
2018-07-07T04:03:52.708Z,934.14
2018-07-07T04:04:52.648Z,934.16
2018-07-07T04:05:52.594Z,934.13
2018-07-07T04:06:52.539Z,934.16
2018-07-07T04:07:52.503Z,934.11
2018-07-07T04:08:52.468Z,934.16
2018-07-07T04:09:52.432Z,934.11
2018-07-07T04:10:52.363Z,934.07
2018-07-07T04:11:52.345Z,934.04
2018-07-07T04:12:52.292Z,934.10
2018-07-07T04:13:52.235Z,934.10
2018-07-07T04:14:52.198Z,934.04
2018-07-07T04:15:52.135Z,934.11
2018-07-07T04:16:52.100Z,934.08
2018-07-07T04:17:52.041Z,934.10
2018-07-07T04:18:52.003Z,934.19
2018-07-07T04:19:51.961Z,934.10
2018-07-07T04:20:51.913Z,934.12
2018-07-07T04:21:51.852Z,934.10
2018-07-07T04:22:51.802Z,934.13
2018-07-07T04:23:51.783Z,934.07
2018-07-07T04:24:51.726Z,934.06
2018-07-07T04:25:51.665Z,934.02
2018-07-07T04:26:51.650Z,934.02
2018-07-07T04:27:51.577Z,934.01
2018-07-07T04:28:51.531Z,934.00
2018-07-07T04:29:51.492Z,934.02
2018-07-07T04:30:51.432Z,934.01
2018-07-07T04:31:51.417Z,933.98
2018-07-07T04:32:51.350Z,934.01
2018-07-07T04:33:51.289Z,933.99
2018-07-07T04:34:51.259Z,933.97
2018-07-07T04:35:51.206Z,933.99
2018-07-07T04:36:51.163Z,933.95
2018-07-07T04:37:51.117Z,933.96
2018-07-07T04:38:51.083Z,933.98
2018-07-07T04:39:51.028Z,933.98
2018-07-07T04:40:50.982Z,933.98
2018-07-07T04:41:50.937Z,933.98
2018-07-07T04:42:50.915Z,933.96
2018-07-07T04:43:50.839Z,933.99
2018-07-07T04:44:50.815Z,933.93
2018-07-07T04:45:50.784Z,933.93
2018-07-07T04:46:50.705Z,933.88
2018-07-07T04:47:50.672Z,933.85
2018-07-07T04:48:50.619Z,933.81
2018-07-07T04:49:50.573Z,933.89
2018-07-07T04:50:50.533Z,933.84
2018-07-07T04:51:50.474Z,933.84
2018-07-07T04:52:50.430Z,933.88
2018-07-07T04:53:50.374Z,933.84
2018-07-07T04:54:50.329Z,933.78
2018-07-07T04:55:50.319Z,933.84
2018-07-07T04:56:50.249Z,933.80
2018-07-07T04:57:50.217Z,933.78
2018-07-07T04:58:50.154Z,933.78
2018-07-07T04:59:50.106Z,933.77
2018-07-07T05:00:50.047Z,933.73
2018-07-07T05:01:50.011Z,933.70
2018-07-07T05:02:49.958Z,933.67
2018-07-07T05:03:49.939Z,933.67
2018-07-07T05:04:49.891Z,933.63
2018-07-07T05:05:49.833Z,933.62
2018-07-07T05:06:49.779Z,933.63
2018-07-07T05:07:49.721Z,933.61
2018-07-07T05:08:49.700Z,933.60
2018-07-07T05:09:49.649Z,933.60
2018-07-07T05:10:49.593Z,933.58
2018-07-07T05:11:49.544Z,933.57
2018-07-07T05:12:49.520Z,933.59
2018-07-07T05:13:49.458Z,933.59
2018-07-07T05:14:49.399Z,933.58
2018-07-07T05:15:49.355Z,933.56
2018-07-07T05:16:49.312Z,933.55
2018-07-07T05:17:49.291Z,933.51
2018-07-07T05:18:49.217Z,933.51
2018-07-07T05:19:49.174Z,933.55
2018-07-07T05:20:49.153Z,933.56
2018-07-07T05:21:49.107Z,933.54
2018-07-07T05:22:49.039Z,933.54
2018-07-07T05:23:48.986Z,933.55
2018-07-07T05:24:48.942Z,933.50
2018-07-07T05:25:48.919Z,933.49
2018-07-07T05:26:48.860Z,933.50
2018-07-07T05:27:48.804Z,933.51
2018-07-07T05:28:48.762Z,933.45
2018-07-07T05:29:48.737Z,933.46
2018-07-07T05:30:48.664Z,933.42
2018-07-07T05:31:48.692Z,933.43
2018-07-07T05:32:48.569Z,933.44
2018-07-07T05:33:48.550Z,933.40
2018-07-07T05:34:48.492Z,933.39
2018-07-07T05:35:48.488Z,933.40
2018-07-07T05:36:48.387Z,933.35
2018-07-07T05:37:48.334Z,933.33
2018-07-07T05:38:48.305Z,933.32
2018-07-07T05:39:48.257Z,933.32
2018-07-07T05:40:48.213Z,933.34
2018-07-07T05:41:48.182Z,933.32
2018-07-07T05:42:48.136Z,933.34
2018-07-07T05:43:48.064Z,933.36
2018-07-07T05:44:48.024Z,933.34
2018-07-07T05:45:47.977Z,933.34
2018-07-07T05:46:47.936Z,933.34
2018-07-07T05:47:47.900Z,933.32
2018-07-07T05:48:47.829Z,933.33
2018-07-07T05:49:47.812Z,933.31
2018-07-07T05:50:47.740Z,933.31
2018-07-07T05:51:47.713Z,933.28
2018-07-07T05:52:47.655Z,933.24
2018-07-07T05:53:47.624Z,933.29
2018-07-07T05:54:47.565Z,933.29
2018-07-07T05:55:47.505Z,933.33
2018-07-07T05:56:47.484Z,933.38
2018-07-07T05:57:47.442Z,933.36
2018-07-07T05:58:47.375Z,933.33
2018-07-07T05:59:47.319Z,933.30
2018-07-07T06:00:47.277Z,933.29
2018-07-07T06:01:47.241Z,933.31
2018-07-07T06:02:47.187Z,933.29
2018-07-07T06:03:47.154Z,933.29
2018-07-07T06:04:47.098Z,933.29
2018-07-07T06:05:47.057Z,933.30
2018-07-07T06:06:47.026Z,933.28
2018-07-07T06:07:46.985Z,933.27
2018-07-07T06:08:46.919Z,933.26
2018-07-07T06:09:46.872Z,933.26
2018-07-07T06:10:46.849Z,933.25
2018-07-07T06:11:46.785Z,933.24
2018-07-07T06:12:46.740Z,933.21
2018-07-07T06:13:46.693Z,933.21
2018-07-07T06:14:46.639Z,933.22
2018-07-07T06:15:46.581Z,933.23
2018-07-07T06:16:46.538Z,933.21
2018-07-07T06:17:46.489Z,933.22
2018-07-07T06:18:46.449Z,933.23
2018-07-07T06:19:46.392Z,933.22
2018-07-07T06:20:46.364Z,933.25
2018-07-07T06:21:46.325Z,933.23
2018-07-07T06:22:46.280Z,933.21
2018-07-07T06:23:46.240Z,933.20
2018-07-07T06:24:46.166Z,933.24
2018-07-07T06:25:46.132Z,933.18
2018-07-07T06:26:46.148Z,933.16
2018-07-07T06:27:46.045Z,933.10
2018-07-07T06:28:45.991Z,933.12
2018-07-07T06:29:45.944Z,933.14
2018-07-07T06:30:45.922Z,933.11
2018-07-07T06:31:45.858Z,933.11
2018-07-07T06:32:45.816Z,933.12
2018-07-07T06:33:45.769Z,933.11
2018-07-07T06:34:45.717Z,933.10
2018-07-07T06:35:45.691Z,933.11
2018-07-07T06:36:45.613Z,933.09
2018-07-07T06:37:45.584Z,933.11
2018-07-07T06:38:45.532Z,933.11
2018-07-07T06:39:45.481Z,933.13
2018-07-07T06:40:45.448Z,933.15
2018-07-07T06:41:45.383Z,933.13
2018-07-07T06:42:45.342Z,933.12
2018-07-07T06:43:45.329Z,933.12
2018-07-07T06:44:45.275Z,933.12
2018-07-07T06:45:45.226Z,933.15
2018-07-07T06:46:45.183Z,933.13
2018-07-07T06:47:45.132Z,933.13
2018-07-07T06:48:45.072Z,933.17
2018-07-07T06:49:45.019Z,933.14
2018-07-07T06:50:44.995Z,933.09
2018-07-07T06:51:44.925Z,933.08
2018-07-07T06:52:44.876Z,933.10
2018-07-07T06:53:44.904Z,933.07
2018-07-07T06:54:44.788Z,933.10
2018-07-07T06:55:44.749Z,933.07
2018-07-07T06:56:44.791Z,933.11
2018-07-07T06:57:44.663Z,933.11
2018-07-07T06:58:44.600Z,933.06
2018-07-07T06:59:44.656Z,933.09
2018-07-07T07:00:44.531Z,933.09
2018-07-07T07:01:44.466Z,933.06
2018-07-07T07:02:44.447Z,933.04
2018-07-07T07:03:44.380Z,933.07
2018-07-07T07:04:44.351Z,933.05
2018-07-07T07:05:44.277Z,933.04
2018-07-07T07:06:44.228Z,933.10
2018-07-07T07:07:44.205Z,933.07
2018-07-07T07:08:44.156Z,933.13
2018-07-07T07:09:44.122Z,933.12
2018-07-07T07:10:44.046Z,933.11
2018-07-07T07:11:44.015Z,933.10
2018-07-07T07:12:43.952Z,933.14
2018-07-07T07:13:43.936Z,933.16
2018-07-07T07:14:43.884Z,933.19
2018-07-07T07:15:43.845Z,933.14
2018-07-07T07:16:43.808Z,933.16
2018-07-07T07:17:43.729Z,933.08
2018-07-07T07:18:43.675Z,933.06
2018-07-07T07:19:43.667Z,933.05
2018-07-07T07:20:43.607Z,933.01
2018-07-07T07:21:43.568Z,933.00
2018-07-07T07:22:43.508Z,933.01
2018-07-07T07:23:43.447Z,932.99
2018-07-07T07:24:43.414Z,933.03
2018-07-07T07:25:43.366Z,933.02
2018-07-07T07:26:43.311Z,933.02
2018-07-07T07:27:43.285Z,932.98
2018-07-07T07:28:43.279Z,933.01
2018-07-07T07:29:43.196Z,933.05
2018-07-07T07:30:43.119Z,933.02
2018-07-07T07:31:43.077Z,933.00
2018-07-07T07:32:43.021Z,933.04
2018-07-07T07:33:43.008Z,933.02
2018-07-07T07:34:42.944Z,933.08
2018-07-07T07:35:42.910Z,933.09
2018-07-07T07:36:42.894Z,933.06
2018-07-07T07:37:42.823Z,933.11
2018-07-07T07:38:42.753Z,933.12
2018-07-07T07:39:42.743Z,933.12
2018-07-07T07:40:42.658Z,933.11
2018-07-07T07:41:42.615Z,933.13
2018-07-07T07:42:42.593Z,933.13
2018-07-07T07:43:42.514Z,933.13
2018-07-07T07:44:42.470Z,933.12
2018-07-07T07:45:42.453Z,933.11
2018-07-07T07:46:42.381Z,933.11
2018-07-07T07:47:42.329Z,933.07
2018-07-07T07:48:42.308Z,933.08
2018-07-07T07:49:42.268Z,933.09
2018-07-07T07:50:42.218Z,933.09
2018-07-07T07:51:42.176Z,933.09
2018-07-07T07:52:42.167Z,933.15
2018-07-07T07:53:42.078Z,933.14
2018-07-07T07:54:42.010Z,933.13
2018-07-07T07:55:41.991Z,933.14
2018-07-07T07:56:41.912Z,933.12
2018-07-07T07:57:41.891Z,933.10
2018-07-07T07:58:41.824Z,933.04
2018-07-07T07:59:41.779Z,933.10
2018-07-07T08:00:41.728Z,933.14
2018-07-07T08:01:41.692Z,933.15
2018-07-07T08:02:41.645Z,933.20
2018-07-07T08:03:41.587Z,933.18
2018-07-07T08:04:41.554Z,933.22
2018-07-07T08:05:41.525Z,933.19
2018-07-07T08:06:41.460Z,933.22
2018-07-07T08:07:41.430Z,933.22
2018-07-07T08:08:41.368Z,933.19
2018-07-07T08:09:41.313Z,933.19
2018-07-07T08:10:41.265Z,933.20
2018-07-07T08:11:41.217Z,933.17
2018-07-07T08:12:41.182Z,933.17
2018-07-07T08:13:41.129Z,933.16
2018-07-07T08:14:41.083Z,933.18
2018-07-07T08:15:41.031Z,933.15
2018-07-07T08:16:41.021Z,933.12
2018-07-07T08:17:40.956Z,933.13
2018-07-07T08:18:40.910Z,933.18
2018-07-07T08:19:40.850Z,933.15
2018-07-07T08:20:40.826Z,933.13
2018-07-07T08:21:40.781Z,933.15
2018-07-07T08:22:40.723Z,933.13
2018-07-07T08:23:40.680Z,933.14
2018-07-07T08:24:40.625Z,933.12
2018-07-07T08:25:40.585Z,933.10
2018-07-07T08:26:40.525Z,933.13
2018-07-07T08:27:40.500Z,933.12
2018-07-07T08:28:40.428Z,933.14
2018-07-07T08:29:40.393Z,933.14
2018-07-07T08:30:40.335Z,933.16
2018-07-07T08:31:40.308Z,933.16
2018-07-07T08:32:40.255Z,933.16
2018-07-07T08:33:40.196Z,933.15
2018-07-07T08:34:40.168Z,933.14
2018-07-07T08:35:40.133Z,933.17
2018-07-07T08:36:40.062Z,933.17
2018-07-07T08:37:40.015Z,933.15
2018-07-07T08:38:39.963Z,933.16
2018-07-07T08:39:39.927Z,933.19
2018-07-07T08:40:39.869Z,933.26
2018-07-07T08:41:39.829Z,933.27
2018-07-07T08:42:39.788Z,933.29
2018-07-07T08:43:39.729Z,933.28
2018-07-07T08:44:39.688Z,933.29
2018-07-07T08:45:39.647Z,933.29
2018-07-07T08:46:39.616Z,933.33
2018-07-07T08:47:39.550Z,933.31
2018-07-07T08:48:39.558Z,933.36
2018-07-07T08:49:39.476Z,933.33
2018-07-07T08:50:39.403Z,933.32
2018-07-07T08:51:39.363Z,933.34
2018-07-07T08:52:39.328Z,933.32
2018-07-07T08:53:39.278Z,933.30
2018-07-07T08:54:39.229Z,933.33
2018-07-07T08:55:39.183Z,933.36
2018-07-07T08:56:39.137Z,933.32
2018-07-07T08:57:39.086Z,933.42
2018-07-07T08:58:39.030Z,933.44
2018-07-07T08:59:39.015Z,933.39
2018-07-07T09:00:38.952Z,933.45
2018-07-07T09:01:38.911Z,933.42
2018-07-07T09:02:38.845Z,933.42
2018-07-07T09:03:38.810Z,933.39
2018-07-07T09:04:38.794Z,933.38
2018-07-07T09:05:38.717Z,933.38
2018-07-07T09:06:38.658Z,933.42
2018-07-07T09:07:38.624Z,933.42
2018-07-07T09:08:38.579Z,933.44
2018-07-07T09:09:38.519Z,933.50
2018-07-07T09:10:38.502Z,933.47
2018-07-07T09:11:38.456Z,933.52
2018-07-07T09:12:38.398Z,933.48
2018-07-07T09:13:38.333Z,933.49
2018-07-07T09:14:38.300Z,933.51
2018-07-07T09:15:38.250Z,933.52
2018-07-07T09:16:38.713Z,933.57
2018-07-07T09:17:38.189Z,933.60
2018-07-07T09:18:38.133Z,933.58
2018-07-07T09:19:38.063Z,933.65
2018-07-07T09:20:38.011Z,933.69
2018-07-07T09:21:37.985Z,933.68
2018-07-07T09:22:37.940Z,933.68
2018-07-07T09:23:37.893Z,933.66
2018-07-07T09:24:37.890Z,933.69
2018-07-07T09:25:37.779Z,933.68
2018-07-07T09:26:37.741Z,933.67
2018-07-07T09:27:37.701Z,933.70
2018-07-07T09:28:37.653Z,933.73
2018-07-07T09:29:37.587Z,933.73
2018-07-07T09:30:37.558Z,933.72
2018-07-07T09:31:37.501Z,933.73
2018-07-07T09:32:37.452Z,933.75
2018-07-07T09:33:37.407Z,933.78
2018-07-07T09:34:37.359Z,933.73
2018-07-07T09:35:37.312Z,933.77
2018-07-07T09:36:37.277Z,933.78
2018-07-07T09:37:37.214Z,933.78
2018-07-07T09:38:37.187Z,933.75
2018-07-07T09:39:37.126Z,933.75
2018-07-07T09:40:37.080Z,933.77
2018-07-07T09:41:37.048Z,933.75
2018-07-07T09:42:36.980Z,933.77
2018-07-07T09:43:36.939Z,933.78
2018-07-07T09:44:36.888Z,933.77
2018-07-07T09:45:36.874Z,933.75
2018-07-07T09:46:36.801Z,933.74
2018-07-07T09:47:36.770Z,933.77
2018-07-07T09:48:36.716Z,933.72
2018-07-07T09:49:36.681Z,933.74
2018-07-07T09:50:36.641Z,933.74
2018-07-07T09:51:36.578Z,933.75
2018-07-07T09:52:36.542Z,933.78
2018-07-07T09:53:36.477Z,933.79
2018-07-07T09:54:36.443Z,933.82
2018-07-07T09:55:36.401Z,933.85
2018-07-07T09:56:36.349Z,933.80
2018-07-07T09:57:36.315Z,933.85
2018-07-07T09:58:36.251Z,933.84
2018-07-07T09:59:36.201Z,933.81
2018-07-07T10:00:36.173Z,933.82
2018-07-07T10:01:36.096Z,933.83
2018-07-07T10:02:36.056Z,933.82
2018-07-07T10:03:36.027Z,933.85
2018-07-07T10:04:35.975Z,933.84
2018-07-07T10:05:35.922Z,933.89
2018-07-07T10:06:35.888Z,933.87
2018-07-07T10:07:35.894Z,933.89
2018-07-07T10:08:35.811Z,933.89
2018-07-07T10:09:35.755Z,933.89
2018-07-07T10:10:35.702Z,933.88
2018-07-07T10:11:35.655Z,933.89
2018-07-07T10:12:35.591Z,933.92
2018-07-07T10:13:35.559Z,933.91
2018-07-07T10:14:35.506Z,933.94
2018-07-07T10:15:35.453Z,933.92
2018-07-07T10:16:35.403Z,933.98
2018-07-07T10:17:35.351Z,934.00
2018-07-07T10:18:35.332Z,933.98
2018-07-07T10:19:35.255Z,933.94
2018-07-07T10:20:35.276Z,933.97
2018-07-07T10:21:35.171Z,933.94
2018-07-07T10:22:35.125Z,933.94
2018-07-07T10:23:35.097Z,933.97
2018-07-07T10:24:35.034Z,933.96
2018-07-07T10:25:34.991Z,934.01
2018-07-07T10:26:34.928Z,934.01
2018-07-07T10:27:34.918Z,934.00
2018-07-07T10:28:34.868Z,934.03
2018-07-07T10:29:34.789Z,934.01
2018-07-07T10:30:34.767Z,934.04
2018-07-07T10:31:34.755Z,934.05
2018-07-07T10:32:34.725Z,934.16
2018-07-07T10:33:34.640Z,934.31
2018-07-07T10:34:34.568Z,934.24
2018-07-07T10:35:34.520Z,934.23
2018-07-07T10:36:34.484Z,934.22
2018-07-07T10:37:34.469Z,934.18
2018-07-07T10:38:34.381Z,934.21
2018-07-07T10:39:34.346Z,934.29
2018-07-07T10:40:34.289Z,934.46
2018-07-07T10:41:34.260Z,934.51
2018-07-07T10:42:34.224Z,934.55
2018-07-07T10:43:34.158Z,934.56
2018-07-07T10:44:34.108Z,934.56
2018-07-07T10:45:34.161Z,934.62
2018-07-07T10:46:34.039Z,934.63
2018-07-07T10:47:33.998Z,934.64
2018-07-07T10:48:33.942Z,934.71
2018-07-07T10:49:33.891Z,934.69
2018-07-07T10:50:33.860Z,934.67
2018-07-07T10:51:33.810Z,934.72
2018-07-07T10:52:33.763Z,934.71
2018-07-07T10:53:33.710Z,934.74
2018-07-07T10:54:33.708Z,934.86
2018-07-07T10:55:33.717Z,934.83
2018-07-07T10:56:33.623Z,934.78
2018-07-07T10:57:33.549Z,934.73
2018-07-07T10:58:33.516Z,934.73
2018-07-07T10:59:33.477Z,934.74
2018-07-07T11:00:33.413Z,934.71
2018-07-07T11:01:33.373Z,934.76
2018-07-07T11:02:33.353Z,934.79
2018-07-07T11:03:33.313Z,934.79
2018-07-07T11:04:33.250Z,934.86
2018-07-07T11:05:33.216Z,934.93
2018-07-07T11:06:33.200Z,934.93
2018-07-07T11:07:33.153Z,934.96
2018-07-07T11:08:33.113Z,934.94
2018-07-07T11:09:33.070Z,934.97
2018-07-07T11:10:33.019Z,934.94
2018-07-07T11:11:32.973Z,934.94
2018-07-07T11:12:32.922Z,934.94
2018-07-07T11:13:32.892Z,934.85
2018-07-07T11:14:32.855Z,934.76
2018-07-07T11:15:32.802Z,934.66
2018-07-07T11:16:32.770Z,934.76
2018-07-07T11:17:32.752Z,934.82
2018-07-07T11:18:32.689Z,934.83
2018-07-07T11:19:32.648Z,934.83
2018-07-07T11:20:32.605Z,934.84
2018-07-07T11:21:32.570Z,934.81
2018-07-07T11:22:32.556Z,934.67
2018-07-07T11:23:32.488Z,934.60
2018-07-07T11:24:32.446Z,934.59
2018-07-07T11:25:32.407Z,934.56
2018-07-07T11:26:32.379Z,934.54
2018-07-07T11:27:32.337Z,934.55
2018-07-07T11:28:32.293Z,934.54
2018-07-07T11:29:32.260Z,934.52
2018-07-07T11:30:32.198Z,934.48
2018-07-07T11:31:32.190Z,934.53
2018-07-07T11:32:32.121Z,934.50
2018-07-07T11:33:32.105Z,934.51
2018-07-07T11:34:32.035Z,934.52
2018-07-07T11:35:32.000Z,934.52
2018-07-07T11:36:32.073Z,934.55
2018-07-07T11:37:31.921Z,934.58
2018-07-07T11:38:31.903Z,934.64
2018-07-07T11:39:31.833Z,934.64
2018-07-07T11:40:31.800Z,934.62
2018-07-07T11:41:31.781Z,934.67
2018-07-07T11:42:31.733Z,934.65
2018-07-07T11:43:31.658Z,934.68
2018-07-07T11:44:31.604Z,934.74
2018-07-07T11:45:31.564Z,934.72
2018-07-07T11:46:31.529Z,934.73
2018-07-07T11:47:31.483Z,934.70
2018-07-07T11:48:31.443Z,934.74
2018-07-07T11:49:31.393Z,934.72
2018-07-07T11:50:31.389Z,934.76
2018-07-07T11:51:31.319Z,934.74
2018-07-07T11:52:31.286Z,934.76
2018-07-07T11:53:31.225Z,934.76
2018-07-07T11:54:31.188Z,934.78
2018-07-07T11:55:31.144Z,934.78
2018-07-07T11:56:31.114Z,934.81
2018-07-07T11:57:31.038Z,934.74
2018-07-07T11:58:31.013Z,934.80
2018-07-07T11:59:30.975Z,934.85
2018-07-07T12:00:30.913Z,934.89
2018-07-07T12:01:30.867Z,934.92
2018-07-07T12:02:30.836Z,934.92
2018-07-07T12:03:30.799Z,934.92
2018-07-07T12:04:30.772Z,934.92
2018-07-07T12:05:30.699Z,934.89
2018-07-07T12:06:30.656Z,934.92
2018-07-07T12:07:30.619Z,934.94
2018-07-07T12:08:30.668Z,934.86
2018-07-07T12:09:30.520Z,934.88
2018-07-07T12:10:30.464Z,934.89
2018-07-07T12:11:30.498Z,934.89
2018-07-07T12:12:30.419Z,934.85
2018-07-07T12:13:30.345Z,934.85
2018-07-07T12:14:30.307Z,934.84
2018-07-07T12:15:30.261Z,934.88
2018-07-07T12:16:30.221Z,934.86
2018-07-07T12:17:30.180Z,934.87
2018-07-07T12:18:30.145Z,934.86
2018-07-07T12:19:30.101Z,934.88
2018-07-07T12:20:30.028Z,934.90
2018-07-07T12:21:30.013Z,934.87
2018-07-07T12:22:29.936Z,934.89
2018-07-07T12:23:29.891Z,934.93
2018-07-07T12:24:29.854Z,934.90
2018-07-07T12:25:29.810Z,934.89
2018-07-07T12:26:29.771Z,934.86
2018-07-07T12:27:29.726Z,934.88